Time;durP1;ratioP1;P1;durP2;ratioP2;P2;SDS_P1;SDS_P2;PMS_P1;PMS_P2;Temp;Humidity;BMP_temperature;BMP_pressure;BME280_temperature;BME280_humidity;BME280_pressure;Samples;Min_cycle;Max_cycle;Signal;HPM_P1;HPM_P2
2023/08/15 00:00:57;;;;;;;7.03;3.87;;;;;;;27.18;45.11;100042.97;4317652;33;34187;-68
2023/08/15 00:03:26;;;;;;;6.32;4.32;;;;;;;27.18;44.97;100048.47;4317394;33;34907;-64
2023/08/15 00:05:53;;;;;;;5.97;4.30;;;;;;;27.18;45.09;100051.19;4317654;33;34660;-63
2023/08/15 00:08:21;;;;;;;7.80;4.22;;;;;;;27.16;45.20;100045.97;4317709;33;33759;-63
2023/08/15 00:10:49;;;;;;;6.07;4.12;;;;;;;27.17;45.12;100041.31;4317286;33;34094;-66
2023/08/15 00:13:16;;;;;;;6.87;4.57;;;;;;;27.17;44.87;100049.53;4292546;33;34802;-63
2023/08/15 00:15:44;;;;;;;6.45;3.70;;;;;;;27.17;44.82;100050.37;4317587;33;33942;-63
2023/08/15 00:18:11;;;;;;;6.87;4.68;;;;;;;27.16;44.71;100045.16;4317418;33;34533;-63
2023/08/15 00:20:39;;;;;;;8.15;5.10;;;;;;;27.15;44.73;100041.59;4317583;33;34259;-63
2023/08/15 00:23:06;;;;;;;5.28;3.87;;;;;;;27.15;44.75;100036.09;4317498;33;34610;-63
2023/08/15 00:25:34;;;;;;;6.57;4.43;;;;;;;27.15;44.95;100030.63;4317364;33;33842;-64
2023/08/15 00:28:02;;;;;;;5.90;4.05;;;;;;;27.14;44.86;100033.59;4317355;33;33981;-63
2023/08/15 00:30:32;;;;;;;5.25;3.78;;;;;;;27.14;44.84;100039.94;4317450;33;34296;-63
2023/08/15 00:33:00;;;;;;;6.65;4.45;;;;;;;27.13;44.81;100032.75;4317169;33;34704;-63
2023/08/15 00:35:28;;;;;;;6.53;4.10;;;;;;;27.14;44.75;100030.84;4292031;33;34136;-64
2023/08/15 00:37:56;;;;;;;5.50;4.00;;;;;;;27.13;44.87;100026.47;4317176;33;34537;-64
2023/08/15 00:40:23;;;;;;;6.40;4.45;;;;;;;27.13;44.80;100029.19;4317257;33;32996;-64
2023/08/15 00:42:51;;;;;;;6.82;4.22;;;;;;;27.12;44.92;100030.28;4292157;33;33944;-64
2023/08/15 00:45:18;;;;;;;9.73;4.15;;;;;;;27.11;45.03;100029.44;4317289;33;33733;-63
2023/08/15 00:47:46;;;;;;;6.18;4.37;;;;;;;27.12;45.14;100038.50;4304300;33;33855;-63
2023/08/15 00:50:14;;;;;;;6.28;3.92;;;;;;;27.12;45.06;100028.38;4317276;33;33188;-73
2023/08/15 00:52:41;;;;;;;6.12;4.15;;;;;;;27.11;44.98;100032.19;4291917;33;32735;-64
2023/08/15 00:55:09;;;;;;;6.32;4.37;;;;;;;27.11;45.01;100034.94;4291982;33;34008;-63
2023/08/15 00:57:37;;;;;;;6.70;4.30;;;;;;;27.11;45.00;100034.94;4304018;33;33374;-63
2023/08/15 01:00:06;;;;;;;6.65;3.97;;;;;;;27.11;44.98;100031.38;4303947;33;33520;-63
2023/08/15 01:02:34;;;;;;;5.90;4.30;;;;;;;27.10;44.88;100033.28;4304059;33;34620;-65
2023/08/15 01:05:02;;;;;;;7.00;4.43;;;;;;;27.12;44.81;100028.38;4317078;33;33577;-63
2023/08/15 01:07:30;;;;;;;6.15;3.85;;;;;;;27.10;44.82;100030.53;4304121;33;33844;-64
2023/08/15 01:09:57;;;;;;;6.35;3.87;;;;;;;27.10;44.80;100032.44;4316992;33;32210;-63
2023/08/15 01:12:32;;;;;;;6.62;4.72;;;;;;;27.08;44.88;100032.66;4317060;33;34144;-63
2023/08/15 01:15:06;;;;;;;6.97;4.37;;;;;;;27.09;44.94;100028.88;4303682;33;34549;-63
2023/08/15 01:17:37;;;;;;;6.60;4.50;;;;;;;27.09;44.83;100028.03;4303609;33;33713;-63
2023/08/15 01:20:07;;;;;;;6.68;4.12;;;;;;;27.07;44.75;100028.25;4304122;33;33689;-63
2023/08/15 01:22:36;;;;;;;6.97;4.05;;;;;;;27.07;44.75;100022.78;4316753;33;34699;-63
2023/08/15 01:25:04;;;;;;;7.87;4.47;;;;;;;27.06;44.68;100026.59;4316851;33;34724;-63
2023/08/15 01:27:32;;;;;;;9.15;3.97;;;;;;;27.06;44.76;100028.50;4316879;33;34582;-63
2023/08/15 01:30:00;;;;;;;5.93;4.20;;;;;;;27.06;44.68;100036.72;4316667;33;33102;-64
2023/08/15 01:32:43;;;;;;;8.30;4.32;;;;;;;27.05;44.68;100033.16;4316823;33;34742;-63
2023/08/15 01:35:20;;;;;;;6.80;4.53;;;;;;;27.07;44.67;100038.38;4291768;33;33936;-63
2023/08/15 01:37:51;;;;;;;6.15;4.22;;;;;;;27.05;44.63;100032.31;4291678;33;33548;-63
2023/08/15 01:40:19;;;;;;;5.60;4.25;;;;;;;27.04;44.62;100036.13;4291703;33;33266;-67
2023/08/15 01:42:46;;;;;;;6.07;4.15;;;;;;;27.03;44.65;100031.72;4303622;33;33925;-65
2023/08/15 01:45:14;;;;;;;6.35;4.22;;;;;;;27.02;44.69;100030.06;4291560;33;33658;-64
2023/08/15 01:47:42;;;;;;;6.60;3.83;;;;;;;27.02;44.59;100027.31;4291574;33;33599;-63
2023/08/15 01:50:09;;;;;;;6.85;4.07;;;;;;;27.02;44.55;100027.31;4293383;33;33404;-66
2023/08/15 01:52:37;;;;;;;7.40;4.40;;;;;;;27.00;44.60;100022.09;4318590;33;33527;-65
2023/08/15 01:55:05;;;;;;;6.43;4.32;;;;;;;27.01;44.65;100031.97;4318243;33;33898;-64
2023/08/15 01:57:33;;;;;;;6.10;3.97;;;;;;;26.99;44.56;100025.91;4318344;33;33841;-63
2023/08/15 02:00:00;;;;;;;6.37;4.28;;;;;;;26.99;44.56;100023.16;4305202;33;33043;-63
2023/08/15 02:02:28;;;;;;;6.55;3.85;;;;;;;26.99;44.54;100025.06;4304784;33;33132;-63
2023/08/15 02:05:01;;;;;;;5.90;4.12;;;;;;;26.99;44.53;100027.81;4318388;33;34800;-64
2023/08/15 02:07:29;;;;;;;7.80;4.53;;;;;;;26.98;44.53;100031.62;4318267;33;33593;-63
2023/08/15 02:09:57;;;;;;;6.07;3.87;;;;;;;26.96;44.55;100021.75;4318422;33;33530;-63
2023/08/15 02:12:24;;;;;;;6.97;3.90;;;;;;;26.97;44.68;100025.31;4318352;33;33952;-63
2023/08/15 02:14:52;;;;;;;6.68;4.35;;;;;;;26.96;44.67;100027.22;4318301;33;34901;-65
2023/08/15 02:17:19;;;;;;;7.32;4.37;;;;;;;26.96;44.61;100023.66;4304898;33;33620;-64
2023/08/15 02:19:48;;;;;;;7.22;4.28;;;;;;;26.95;44.57;100022.84;4318248;33;33055;-63
2023/08/15 02:22:16;;;;;;;8.13;4.20;;;;;;;26.95;44.53;100019.25;4318189;33;33859;-66
2023/08/15 02:24:43;;;;;;;6.05;3.72;;;;;;;26.94;44.50;100017.59;4318228;33;34009;-63
2023/08/15 02:27:11;;;;;;;7.82;4.37;;;;;;;26.94;44.46;100020.31;4318228;33;33983;-64
2023/08/15 02:29:41;;;;;;;5.78;3.80;;;;;;;26.93;44.41;100021.41;4318536;33;33381;-71
2023/08/15 02:32:09;;;;;;;7.15;4.45;;;;;;;26.94;44.42;100025.81;4304960;33;34148;-63
2023/08/15 02:34:37;;;;;;;7.40;4.32;;;;;;;26.92;44.43;100020.56;4318062;33;34896;-63
2023/08/15 02:37:04;;;;;;;6.40;4.30;;;;;;;26.92;44.50;100025.22;4317992;33;34444;-63
2023/08/15 02:39:33;;;;;;;5.18;4.05;;;;;;;26.92;44.49;100017.00;4318082;33;32841;-63
2023/08/15 02:42:00;;;;;;;5.70;4.00;;;;;;;26.92;44.43;100019.75;4318135;33;33937;-63
2023/08/15 02:44:28;;;;;;;6.30;4.30;;;;;;;26.90;44.42;100019.97;4318043;33;33819;-63
2023/08/15 02:46:57;;;;;;;6.70;4.07;;;;;;;26.91;44.41;100026.31;4305084;33;33930;-76
2023/08/15 02:49:25;;;;;;;5.60;4.05;;;;;;;26.91;44.40;100020.84;4318339;33;33137;-70
2023/08/15 02:51:53;;;;;;;6.75;4.25;;;;;;;26.90;44.42;100024.63;4304698;33;33491;-70
2023/08/15 02:54:20;;;;;;;5.65;4.12;;;;;;;26.88;44.42;100016.66;4317954;33;33694;-78
2023/08/15 02:56:48;;;;;;;8.23;4.15;;;;;;;26.88;44.43;100013.94;4318003;33;33925;-64
2023/08/15 02:59:15;;;;;;;6.65;4.40;;;;;;;26.88;44.42;100013.09;4317925;33;33393;-70
2023/08/15 03:01:43;;;;;;;6.10;4.43;;;;;;;26.87;44.43;100014.19;4317957;33;34661;-71
2023/08/15 03:04:10;;;;;;;8.55;4.55;;;;;;;26.87;44.47;100014.19;4317981;33;33905;-77
2023/08/15 03:06:38;;;;;;;7.47;4.62;;;;;;;26.87;44.63;100016.91;4318123;33;33988;-69
2023/08/15 03:09:06;;;;;;;6.37;4.18;;;;;;;26.87;44.56;100008.69;4318035;33;34166;-75
2023/08/15 03:11:33;;;;;;;6.60;4.20;;;;;;;26.87;44.52;100017.75;4317944;33;34792;-74
2023/08/15 03:14:01;;;;;;;6.35;3.78;;;;;;;26.87;44.43;100015.00;4317755;33;34186;-70
2023/08/15 03:16:29;;;;;;;6.47;4.20;;;;;;;26.87;44.46;100014.19;4318176;33;33914;-73
2023/08/15 03:18:56;;;;;;;6.12;4.22;;;;;;;26.87;44.46;100011.44;4317858;33;33735;-68
2023/08/15 03:21:24;;;;;;;7.22;4.22;;;;;;;26.86;44.40;100005.12;4317672;33;34050;-74
2023/08/15 03:23:52;;;;;;;6.03;4.05;;;;;;;26.85;44.35;100008.09;4317708;33;34705;-69
2023/08/15 03:26:19;;;;;;;6.25;4.20;;;;;;;26.85;44.34;100006.19;4317841;33;34765;-76
2023/08/15 03:28:47;;;;;;;6.55;4.43;;;;;;;26.85;44.35;100013.56;4317692;33;34087;-67
2023/08/15 03:31:15;;;;;;;7.05;4.43;;;;;;;26.84;44.38;100011.91;4317770;33;34028;-75
2023/08/15 03:33:43;;;;;;;6.32;3.90;;;;;;;26.84;44.36;100017.41;4307245;33;33975;-65
2023/08/15 03:36:11;;;;;;;6.12;4.40;;;;;;;26.82;44.36;100006.69;4303256;33;34669;-76
2023/08/15 03:38:41;;;;;;;6.62;4.35;;;;;;;26.81;44.37;100010.47;4303474;33;32946;-68
2023/08/15 03:41:08;;;;;;;6.03;4.32;;;;;;;26.81;44.39;100017.88;4303161;33;34348;-69
2023/08/15 03:43:36;;;;;;;5.10;3.95;;;;;;;26.81;44.38;100012.41;4302927;33;33919;-71
2023/08/15 03:46:04;;;;;;;6.40;4.35;;;;;;;26.81;44.37;100018.69;4303141;33;34309;-75
2023/08/15 03:48:33;;;;;;;6.90;4.22;;;;;;;26.79;44.37;100014.56;4278817;33;33320;-71
2023/08/15 03:51:01;;;;;;;7.32;4.45;;;;;;;26.79;44.35;100014.56;4302766;33;33893;-67
2023/08/15 03:53:28;;;;;;;6.22;4.28;;;;;;;26.79;44.35;100020.03;4302886;33;34969;-76
2023/08/15 03:55:56;;;;;;;7.65;4.65;;;;;;;26.77;44.36;100016.72;4289735;33;34362;-68
2023/08/15 03:58:24;;;;;;;7.43;4.68;;;;;;;26.78;44.37;100023.84;4303215;33;34392;-76
2023/08/15 04:00:52;;;;;;;7.87;4.37;;;;;;;26.78;44.38;100023.84;4302958;33;33504;-73
2023/08/15 04:03:19;;;;;;;7.30;4.37;;;;;;;26.78;44.37;100021.13;4303087;33;34791;-77
2023/08/15 04:05:47;;;;;;;5.78;4.00;;;;;;;26.77;44.38;100022.19;4302965;33;33424;-68
2023/08/15 04:08:15;;;;;;;5.82;4.20;;;;;;;26.78;44.35;100021.13;4303008;33;33466;-69
2023/08/15 04:10:46;;;;;;;6.20;4.20;;;;;;;26.76;44.35;100024.06;4302471;33;33986;-72
2023/08/15 04:13:14;;;;;;;8.32;4.47;;;;;;;26.76;44.36;100028.72;4302973;33;33931;-78
2023/08/15 04:15:43;;;;;;;6.15;4.30;;;;;;;26.76;44.33;100021.34;4302992;33;33904;-69
2023/08/15 04:18:11;;;;;;;6.57;4.32;;;;;;;26.76;44.31;100026.81;4303123;33;33040;-74
2023/08/15 04:20:39;;;;;;;9.00;4.70;;;;;;;26.76;44.36;100034.19;4289716;33;33074;-74
2023/08/15 04:23:07;;;;;;;6.10;3.92;;;;;;;26.75;44.42;100040.75;4302984;33;34011;-73
2023/08/15 04:25:37;;;;;;;6.70;4.40;;;;;;;26.75;44.41;100032.53;4290010;33;33789;-71
2023/08/15 04:28:04;;;;;;;6.97;4.60;;;;;;;26.74;44.45;100034.44;4302982;33;33944;-75
2023/08/15 04:30:33;;;;;;;8.27;4.62;;;;;;;26.75;44.46;100032.53;4303112;33;34033;-66
2023/08/15 04:33:00;;;;;;;10.05;5.10;;;;;;;26.73;44.49;100041.00;4308814;33;34017;-72
2023/08/15 04:35:28;;;;;;;6.37;3.87;;;;;;;26.72;44.52;100036.63;4304371;33;33783;-64
2023/08/15 04:37:56;;;;;;;7.62;4.47;;;;;;;26.71;44.53;100037.66;4317396;33;33672;-70
2023/08/15 04:40:40;;;;;;;10.20;4.53;;;;;;;26.73;44.56;100040.19;4304004;33;33732;-70
2023/08/15 04:43:10;;;;;;;6.78;3.97;;;;;;;26.75;44.58;100043.50;4304560;33;33969;-68
2023/08/15 04:45:40;;;;;;;7.78;4.75;;;;;;;26.72;44.63;100047.56;4304214;33;34523;-73
2023/08/15 04:48:09;;;;;;;7.43;4.30;;;;;;;26.71;44.69;100043.97;4304496;33;33116;-74
2023/08/15 04:50:37;;;;;;;9.43;4.70;;;;;;;26.72;44.70;100044.81;4317601;33;33972;-75
2023/08/15 04:53:05;;;;;;;16.87;4.85;;;;;;;26.70;44.74;100036.84;4317033;33;33862;-63
2023/08/15 04:55:33;;;;;;;8.32;4.70;;;;;;;26.73;44.74;100051.13;4317359;33;33685;-64
2023/08/15 04:58:01;;;;;;;8.98;4.60;;;;;;;26.73;44.73;100051.13;4317239;33;34162;-64
2023/08/15 05:00:28;;;;;;;8.23;4.25;;;;;;;26.72;44.76;100044.81;4316823;33;34727;-65
2023/08/15 05:03:00;;;;;;;7.03;4.47;;;;;;;26.74;44.85;100058.25;4317184;33;34057;-71
2023/08/15 05:05:28;;;;;;;8.18;4.47;;;;;;;26.73;44.84;100051.97;4317084;33;33861;-64
2023/08/15 05:07:55;;;;;;;8.48;4.75;;;;;;;26.72;44.88;100055.78;4317208;33;33987;-77
2023/08/15 05:10:23;;;;;;;7.50;3.83;;;;;;;26.73;44.91;100053.87;4317243;33;34029;-67
2023/08/15 05:12:51;;;;;;;7.95;4.35;;;;;;;26.73;44.88;100054.69;4316963;33;34040;-64
2023/08/15 05:15:19;;;;;;;6.90;4.30;;;;;;;26.75;44.93;100048.97;4317282;33;33499;-63
2023/08/15 05:17:50;;;;;;;6.78;4.20;;;;;;;26.73;44.93;100049.22;4317308;33;33345;-63
2023/08/15 05:20:17;;;;;;;5.82;4.18;;;;;;;26.74;44.92;100052.78;4317057;33;34187;-63
2023/08/15 05:22:45;;;;;;;7.00;4.60;;;;;;;26.74;45.07;100047.31;4315669;33;34648;-64
2023/08/15 05:25:12;;;;;;;7.68;4.57;;;;;;;26.74;45.29;100053.63;4316898;33;34874;-63
2023/08/15 05:27:40;;;;;;;7.80;4.72;;;;;;;26.75;45.31;100051.69;4316955;33;33519;-66
2023/08/15 05:30:09;;;;;;;7.75;4.85;;;;;;;26.75;45.30;100051.69;4316873;33;34345;-63
2023/08/15 05:32:36;;;;;;;7.37;4.97;;;;;;;26.76;45.33;100058.84;4300994;33;33878;-63
2023/08/15 05:35:04;;;;;;;7.35;4.80;;;;;;;26.76;45.43;100059.66;4302054;33;34665;-73
2023/08/15 05:37:32;;;;;;;8.00;4.80;;;;;;;26.76;45.36;100054.19;4301226;33;33120;-63
2023/08/15 05:40:00;;;;;;;7.40;4.62;;;;;;;26.78;45.33;100059.44;4302094;33;34730;-73
2023/08/15 05:42:31;;;;;;;5.43;4.28;;;;;;;26.78;45.39;100056.72;4301949;33;33862;-64
2023/08/15 05:44:58;;;;;;;8.80;5.15;;;;;;;26.78;45.51;100057.53;4302112;33;34052;-63
2023/08/15 05:47:26;;;;;;;7.65;4.80;;;;;;;26.79;45.58;100056.44;4302097;33;34149;-63
2023/08/15 05:49:54;;;;;;;9.57;4.85;;;;;;;26.79;45.62;100050.97;4301819;33;33843;-63
2023/08/15 05:52:21;;;;;;;6.03;4.68;;;;;;;26.80;45.61;100062.75;4302090;33;34010;-64
2023/08/15 05:54:49;;;;;;;7.62;4.47;;;;;;;26.81;45.65;100064.41;4306878;33;34084;-63
2023/08/15 05:57:18;;;;;;;8.32;5.00;;;;;;;26.81;45.60;100067.16;4316206;33;33350;-63
2023/08/15 05:59:46;;;;;;;7.30;4.60;;;;;;;26.82;45.76;100058.72;4316438;33;34554;-66
2023/08/15 06:02:14;;;;;;;7.00;4.75;;;;;;;26.82;45.85;100058.72;4316502;33;33719;-65
2023/08/15 06:04:42;;;;;;;7.18;4.40;;;;;;;26.82;45.91;100064.19;4316231;33;33798;-65
2023/08/15 06:07:14;;;;;;;8.32;4.75;;;;;;;26.84;45.98;100056.56;4316266;33;33547;-64
2023/08/15 06:09:42;;;;;;;8.68;4.95;;;;;;;26.84;45.99;100059.28;4316211;33;34586;-63
2023/08/15 06:12:09;;;;;;;9.73;4.85;;;;;;;26.84;46.00;100055.72;4316320;33;33691;-64
2023/08/15 06:14:39;;;;;;;9.55;5.25;;;;;;;26.86;46.21;100059.03;4316490;33;33972;-66
2023/08/15 06:17:07;;;;;;;8.35;4.53;;;;;;;26.87;46.19;100052.50;4315973;33;33258;-75
2023/08/15 06:19:36;;;;;;;6.70;4.78;;;;;;;26.86;46.18;100059.91;4316221;33;34834;-63
2023/08/15 06:22:04;;;;;;;7.32;4.35;;;;;;;26.88;46.42;100055.00;4316378;33;33678;-63
2023/08/15 06:24:34;;;;;;;7.07;4.80;;;;;;;26.88;46.59;100055.00;4315937;33;34140;-66
2023/08/15 06:27:03;;;;;;;8.40;4.40;;;;;;;26.90;46.61;100054.75;4316179;33;33367;-77
2023/08/15 06:29:30;;;;;;;10.13;4.60;;;;;;;26.90;46.70;100052.00;4302873;33;33821;-64
2023/08/15 06:31:58;;;;;;;9.30;4.68;;;;;;;26.90;46.59;100052.00;4315726;33;34046;-66
2023/08/15 06:34:26;;;;;;;9.73;4.68;;;;;;;26.92;46.76;100058.91;4301225;33;34010;-70
2023/08/15 06:36:53;;;;;;;9.20;4.68;;;;;;;26.93;46.92;100057.84;4303900;33;33413;-64
2023/08/15 06:39:21;;;;;;;8.02;4.80;;;;;;;26.93;46.98;100057.84;4304681;33;33893;-75
2023/08/15 06:41:48;;;;;;;12.52;4.95;;;;;;;26.96;47.00;100053.78;4318113;33;34750;-63
2023/08/15 06:44:16;;;;;;;8.30;4.57;;;;;;;26.95;46.99;100052.97;4318271;33;33569;-64
2023/08/15 06:46:44;;;;;;;9.48;4.93;;;;;;;26.97;46.97;100052.69;4317848;33;33496;-70
2023/08/15 06:49:13;;;;;;;8.45;4.47;;;;;;;26.99;47.00;100055.19;4317966;33;34591;-65
2023/08/15 06:51:40;;;;;;;6.82;4.72;;;;;;;26.99;46.94;100053.28;4318053;33;34044;-63
2023/08/15 06:54:08;;;;;;;8.15;4.80;;;;;;;26.98;46.92;100059.84;4317778;33;33746;-63
2023/08/15 06:56:36;;;;;;;8.38;5.28;;;;;;;27.00;46.95;100060.44;4317726;33;32895;-67
2023/08/15 06:59:03;;;;;;;6.95;4.82;;;;;;;27.02;46.97;100054.72;4318122;33;33682;-73
2023/08/15 07:01:31;;;;;;;8.32;4.22;;;;;;;27.04;46.97;100058.03;4317643;33;34445;-63
2023/08/15 07:04:01;;;;;;;;;;;;;;;27.05;46.83;100056.97;4318112;33;33614;-65
2023/08/15 07:06:28;;;;;;;9.13;4.93;;;;;;;27.18;46.48;100053.94;4318043;33;34050;-63
2023/08/15 07:08:56;;;;;;;8.10;4.75;;;;;;;27.07;46.61;100061.13;4317810;33;33672;-63
2023/08/15 07:11:24;;;;;;;7.10;4.43;;;;;;;27.04;46.71;100052.53;4317946;33;34864;-74
2023/08/15 07:13:51;;;;;;;6.75;4.53;;;;;;;27.04;46.79;100053.38;4318267;33;33932;-71
2023/08/15 07:16:19;;;;;;;8.20;4.40;;;;;;;27.04;46.78;100047.06;4317761;33;32938;-73
2023/08/15 07:18:46;;;;;;;7.18;4.47;;;;;;;27.04;46.79;100050.63;4317803;33;34682;-69
2023/08/15 07:21:14;;;;;;;6.10;4.43;;;;;;;27.07;46.71;100049.31;4317794;33;34800;-69
2023/08/15 07:23:44;;;;;;;7.22;4.18;;;;;;;27.08;46.59;100048.25;4304965;33;34597;-75
2023/08/15 07:26:13;;;;;;;9.60;5.00;;;;;;;27.09;46.56;100049.94;4317847;33;33334;-63
2023/08/15 07:28:41;;;;;;;11.73;4.77;;;;;;;27.08;46.60;100049.09;4317610;33;34671;-66
2023/08/15 07:31:08;;;;;;;7.82;4.82;;;;;;;27.10;46.57;100046.97;4317784;33;33875;-65
2023/08/15 07:33:36;;;;;;;10.55;4.87;;;;;;;27.11;46.58;100054.09;4307554;33;33849;-64
2023/08/15 07:36:04;;;;;;;6.35;4.47;;;;;;;27.13;46.59;100049.19;4302327;33;34185;-63
2023/08/15 07:38:32;;;;;;;7.50;4.80;;;;;;;27.19;46.54;100050.97;4301288;33;34547;-66
2023/08/15 07:41:00;;;;;;;9.63;5.18;;;;;;;27.20;46.51;100046.31;4302870;33;33560;-69
2023/08/15 07:43:27;;;;;;;7.43;4.70;;;;;;;27.20;46.49;100049.06;4302955;33;34385;-67
2023/08/15 07:45:56;;;;;;;11.15;5.15;;;;;;;27.20;46.58;100047.16;4300744;33;32372;-63
2023/08/15 07:48:24;;;;;;;7.47;4.90;;;;;;;27.21;46.63;100046.06;4312553;33;34853;-67
2023/08/15 07:50:52;;;;;;;10.18;5.15;;;;;;;27.25;46.73;100045.59;4316337;33;33792;-68
2023/08/15 07:53:21;;;;;;;6.75;4.90;;;;;;;27.30;46.74;100049.25;4303755;33;34663;-74
2023/08/15 07:55:49;;;;;;;9.90;4.70;;;;;;;27.33;46.73;100046.03;4316960;33;33685;-71
2023/08/15 07:58:16;;;;;;;7.60;5.60;;;;;;;27.31;46.80;100047.34;4316944;33;34081;-64
2023/08/15 08:00:44;;;;;;;7.50;4.90;;;;;;;27.33;46.79;100056.97;4316932;33;33991;-63
2023/08/15 08:03:12;;;;;;;9.60;5.18;;;;;;;27.34;46.76;100055.06;4317008;33;33809;-66
2023/08/15 08:05:40;;;;;;;8.73;4.78;;;;;;;27.32;46.76;100049.81;4316880;33;34071;-65
2023/08/15 08:08:08;;;;;;;7.55;5.07;;;;;;;27.33;46.76;100053.41;4303811;33;33964;-66
2023/08/15 08:10:36;;;;;;;9.43;5.28;;;;;;;27.33;46.76;100045.19;4303855;33;34679;-63
2023/08/15 08:13:06;;;;;;;6.68;4.55;;;;;;;27.35;46.74;100048.50;4316873;33;33551;-63
2023/08/15 08:15:33;;;;;;;;;;;;;;;27.37;46.74;100057.31;4304536;33;33107;-62
2023/08/15 08:18:01;;;;;;;8.77;4.45;;;;;;;27.48;46.49;100048.19;4317264;33;34258;-63
2023/08/15 08:20:29;;;;;;;8.98;4.97;;;;;;;27.40;46.68;100048.59;4316840;33;34577;-63
2023/08/15 08:22:56;;;;;;;8.10;4.87;;;;;;;27.35;46.75;100043.03;4316750;33;33914;-63
2023/08/15 08:25:25;;;;;;;8.80;4.75;;;;;;;27.33;46.75;100047.94;4317496;33;33798;-64
2023/08/15 08:27:52;;;;;;;9.35;4.78;;;;;;;27.33;46.75;100050.69;4317282;33;33836;-63
2023/08/15 08:30:21;;;;;;;12.48;5.22;;;;;;;27.32;46.78;100046.25;4317403;33;32913;-63
2023/08/15 08:32:50;;;;;;;8.67;4.70;;;;;;;27.32;46.85;100049.81;4317578;33;33989;-63
2023/08/15 08:35:18;;;;;;;8.13;5.10;;;;;;;27.34;46.82;100047.69;4317304;33;33932;-65
2023/08/15 08:37:47;;;;;;;7.60;4.72;;;;;;;27.34;46.87;100039.47;4314790;33;34674;-62
2023/08/15 08:40:18;;;;;;;8.35;4.53;;;;;;;27.35;46.86;100040.28;4303444;33;33945;-63
2023/08/15 08:42:46;;;;;;;11.15;4.80;;;;;;;27.36;46.80;100040.03;4316675;33;34687;-65
2023/08/15 08:45:14;;;;;;;8.60;4.53;;;;;;;27.34;46.78;100044.13;4316793;33;33257;-63
2023/08/15 08:47:42;;;;;;;7.28;5.00;;;;;;;27.35;46.74;100037.56;4303507;33;34301;-63
2023/08/15 08:50:10;;;;;;;7.28;4.85;;;;;;;27.37;46.71;100046.34;4303701;33;33867;-63
2023/08/15 08:52:40;;;;;;;11.35;5.03;;;;;;;27.36;46.72;100045.50;4316790;33;34598;-62
2023/08/15 08:55:08;;;;;;;8.30;4.95;;;;;;;27.35;46.67;100043.84;4315055;33;33365;-63
2023/08/15 08:57:36;;;;;;;9.13;5.20;;;;;;;27.36;46.64;100045.50;4314417;33;34653;-62
2023/08/15 09:00:09;;;;;;;9.10;5.55;;;;;;;27.37;46.64;100038.13;4289731;33;34849;-63
2023/08/15 09:02:37;;;;;;;7.35;4.97;;;;;;;27.36;46.63;100039.19;4301177;33;33575;-63
2023/08/15 09:05:07;;;;;;;9.00;4.47;;;;;;;27.37;46.57;100040.84;4289479;33;33973;-63
2023/08/15 09:07:36;;;;;;;6.97;4.70;;;;;;;27.39;46.47;100034.06;4312199;33;33612;-62
2023/08/15 09:10:06;;;;;;;12.27;5.35;;;;;;;27.38;46.47;100028.84;4296030;33;33666;-63
2023/08/15 09:12:34;;;;;;;9.20;4.90;;;;;;;27.37;46.47;100030.75;4302398;33;33622;-63
2023/08/15 09:15:06;;;;;;;10.55;5.15;;;;;;;27.38;46.39;100028.84;4315189;33;34192;-64
2023/08/15 09:17:34;;;;;;;6.93;5.30;;;;;;;27.41;46.52;100029.16;4309820;33;34020;-70
2023/08/15 09:20:13;;;;;;;9.25;5.37;;;;;;;27.44;46.71;100027.84;4307735;33;34591;-64
2023/08/15 09:22:46;;;;;;;7.60;4.80;;;;;;;27.45;46.69;100030.31;4302537;33;33897;-63
2023/08/15 09:25:15;;;;;;;7.32;4.93;;;;;;;27.44;46.72;100031.41;4300292;33;33371;-62
2023/08/15 09:27:43;;;;;;;8.05;5.82;;;;;;;27.43;46.73;100028.94;4291335;33;34566;-62
2023/08/15 09:30:15;;;;;;;12.37;5.18;;;;;;;27.45;46.66;100030.31;4312077;33;34454;-70
2023/08/15 09:32:43;;;;;;;9.35;4.80;;;;;;;27.44;46.70;100028.66;4302787;33;33989;-69
2023/08/15 09:35:12;;;;;;;10.73;5.23;;;;;;;27.44;46.72;100031.41;4314975;33;33266;-64
2023/08/15 09:37:44;;;;;;;6.53;5.03;;;;;;;27.47;46.66;100024.63;4314322;33;33845;-65
2023/08/15 09:40:19;;;;;;;7.60;4.90;;;;;;;27.46;46.65;100029.25;4314816;33;33878;-64
2023/08/15 09:42:47;;;;;;;6.68;5.15;;;;;;;27.46;46.66;100029.25;4302679;33;33866;-68
2023/08/15 09:45:15;;;;;;;7.28;4.80;;;;;;;27.48;46.61;100025.44;4297383;33;33353;-65
2023/08/15 09:47:43;;;;;;;7.80;5.32;;;;;;;27.46;46.66;100023.75;4299576;33;33836;-64
2023/08/15 09:50:12;;;;;;;7.78;4.72;;;;;;;27.47;46.50;100027.34;4314332;33;34842;-63
2023/08/15 09:52:41;;;;;;;9.30;5.35;;;;;;;27.50;46.49;100031.50;4301273;33;34056;-66
2023/08/15 09:55:14;;;;;;;12.40;5.73;;;;;;;27.50;46.43;100029.59;4309888;33;34144;-63
2023/08/15 09:57:46;;;;;;;8.40;5.47;;;;;;;27.52;46.47;100032.09;4315226;33;34140;-63
2023/08/15 10:00:17;;;;;;;9.85;5.37;;;;;;;27.50;46.54;100023.28;4315935;33;33713;-65
2023/08/15 10:03:01;;;;;;;9.45;5.75;;;;;;;27.54;46.37;100022.53;4287724;33;33983;-63
2023/08/15 10:05:32;;;;;;;9.68;5.40;;;;;;;27.54;46.36;100021.69;4294368;33;33492;-63
2023/08/15 10:08:00;;;;;;;10.35;5.47;;;;;;;27.53;46.30;100026.34;4301946;33;33978;-63
2023/08/15 10:10:28;;;;;;;8.85;5.22;;;;;;;27.55;45.95;100024.19;4302841;33;33518;-65
2023/08/15 10:12:55;;;;;;;8.63;5.35;;;;;;;27.55;45.91;100020.63;4304518;33;34574;-63
2023/08/15 10:15:23;;;;;;;7.53;4.95;;;;;;;27.56;45.92;100030.50;4302353;33;32908;-63
2023/08/15 10:17:51;;;;;;;8.90;5.62;;;;;;;27.58;45.87;100023.69;4304618;33;33637;-71
2023/08/15 10:20:19;;;;;;;8.45;5.35;;;;;;;27.61;45.75;100028.69;4303836;33;34746;-63
2023/08/15 10:22:53;;;;;;;9.27;5.60;;;;;;;27.62;45.79;100032.25;4304431;33;33578;-66
2023/08/15 10:25:32;;;;;;;8.13;5.32;;;;;;;27.63;45.82;100031.19;4304443;33;33359;-67
2023/08/15 10:28:02;;;;;;;;;;;;;;;27.64;45.84;100033.66;4304880;33;34009;-70
2023/08/15 10:30:36;;;;;;;6.45;4.80;;;;;;;27.79;45.52;100029.53;4317194;33;33870;-63
2023/08/15 10:33:14;;;;;;;8.77;5.10;;;;;;;27.70;45.66;100031.84;4316941;33;33864;-63
2023/08/15 10:35:47;;;;;;;7.80;5.40;;;;;;;27.71;45.62;100030.75;4317239;33;33590;-65
2023/08/15 10:38:15;;;;;;;8.98;5.35;;;;;;;27.73;45.29;100025.06;4303507;33;32762;-63
2023/08/15 10:40:43;;;;;;;7.80;5.43;;;;;;;27.74;45.22;100018.47;4315631;33;33913;-63
2023/08/15 10:43:12;;;;;;;9.55;5.62;;;;;;;27.74;45.26;100021.22;4303541;33;33849;-64
2023/08/15 10:45:50;;;;;;;7.12;5.20;;;;;;;27.74;45.36;100015.75;4303757;33;33613;-65
2023/08/15 10:48:51;;;;;;;10.30;5.28;;;;;;;27.77;45.16;100010.59;4317676;33;35144;-64
2023/08/15 10:51:24;;;;;;;8.80;5.25;;;;;;;27.80;45.01;100012.03;4265266;33;33644;-68
2023/08/15 10:53:54;;;;;;;10.82;5.25;;;;;;;27.75;44.89;100014.69;4302765;33;33401;-64
2023/08/15 10:56:23;;;;;;;7.82;5.50;;;;;;;27.72;44.92;100007.78;4317321;33;34245;-64
2023/08/15 10:58:50;;;;;;;7.37;5.45;;;;;;;27.76;44.85;100008.94;4291885;33;33752;-67
2023/08/15 11:01:19;;;;;;;12.07;5.97;;;;;;;27.78;44.93;100011.41;4317386;33;33719;-64
2023/08/15 11:03:48;;;;;;;9.00;6.05;;;;;;;27.78;44.85;100003.19;4315455;33;34660;-66
2023/08/15 11:06:16;;;;;;;8.52;5.37;;;;;;;27.74;44.86;100007.53;4303604;33;34170;-65
2023/08/15 11:08:45;;;;;;;7.53;4.85;;;;;;;27.74;44.90;100002.03;4302208;33;33929;-64
2023/08/15 11:11:13;;;;;;;9.93;5.15;;;;;;;27.71;45.01;100012.44;4317704;33;34456;-64
2023/08/15 11:13:42;;;;;;;9.30;5.43;;;;;;;27.73;45.02;100005.88;4316621;33;34115;-70
2023/08/15 11:16:10;;;;;;;7.03;6.03;;;;;;;27.71;45.17;100006.94;4317322;33;33636;-64
2023/08/15 11:18:38;;;;;;;8.90;6.00;;;;;;;27.74;45.21;100005.59;4303779;33;34407;-70
2023/08/15 11:21:07;;;;;;;10.63;6.07;;;;;;;27.74;45.44;100002.03;4316822;33;34007;-64
2023/08/15 11:23:36;;;;;;;7.93;5.43;;;;;;;27.71;45.62;99997.88;4303473;33;34251;-64
2023/08/15 11:26:11;;;;;;;10.38;6.07;;;;;;;27.71;45.65;99995.13;4315458;33;34318;-72
2023/08/15 11:28:38;;;;;;;10.13;5.80;;;;;;;27.71;45.68;99992.38;4303882;33;33958;-64
2023/08/15 11:31:07;;;;;;;10.73;5.90;;;;;;;27.70;45.79;99994.31;4316857;33;33648;-67